Wetterdaten: Woche 15.01.07 - 21.01.07 (KW3)
Datum Zeit Temperatur Luftfeuchte Luftdruck Niederschlag Wind Richtung Sonnenschein UV-Strahlung Solar Taupunkt Windchill Windben
15.01.2007 00:00 1.7 C 97 % 1033.2 hPa 0.0 l/m 0.4 km/h (0 Bft) O 0.00 h 0.0 UV-I 0 W/m 1.3 C 1.7 C 1.7 km/h (1 Bft)
15.01.2007 01:00 0.8 C 96 % 1032.8 hPa 0.0 l/m 0.2 km/h (0 Bft) O 0.00 h 0.0 UV-I 0 W/m 0.2 C 0.8 C 0.9 km/h (0 Bft)
15.01.2007 02:00 0.3 C 97 % 1032.4 hPa 0.0 l/m 0.5 km/h (0 Bft) O 0.00 h 0.0 UV-I 0 W/m -0.1 C 0.3 C 1.7 km/h (1 Bft)
15.01.2007 03:00 0.0 C 97 % 1032.3 hPa 0.0 l/m 0.9 km/h (0 Bft) O 0.00 h 0.0 UV-I 0 W/m -0.4 C 0.0 C 1.6 km/h (1 Bft)
15.01.2007 04:00 0.3 C 98 % 1032.0 hPa 0.0 l/m 0.7 km/h (0 Bft) O 0.00 h 0.0 UV-I 0 W/m -0.0 C 0.3 C 1.5 km/h (1 Bft)
15.01.2007 05:00 0.5 C 98 % 1032.1 hPa 0.0 l/m 0.0 km/h (0 Bft) O 0.00 h 0.0 UV-I 0 W/m 0.2 C 0.5 C 0.1 km/h (0 Bft)
15.01.2007 06:00 0.4 C 98 % 1032.2 hPa 0.0 l/m 0.1 km/h (0 Bft) O 0.00 h 0.0 UV-I 0 W/m 0.2 C 0.4 C 0.6 km/h (0 Bft)
15.01.2007 07:00 -0.1 C 98 % 1032.0 hPa 0.0 l/m 0.6 km/h (0 Bft) O 0.00 h 0.0 UV-I 0 W/m -0.4 C -0.1 C 1.5 km/h (1 Bft)
15.01.2007 08:00 -0.1 C 99 % 1031.9 hPa 0.0 l/m 0.1 km/h (0 Bft) O 0.00 h 0.0 UV-I 13 W/m -0.2 C -0.1 C 0.7 km/h (0 Bft)
15.01.2007 09:00 0.2 C 99 % 1031.9 hPa 0.0 l/m 1.1 km/h (0 Bft) O 0.00 h 0.0 UV-I 37 W/m 0.1 C 0.2 C 2.4 km/h (1 Bft)
15.01.2007 10:00 1.0 C 99 % 1031.9 hPa 0.0 l/m 1.0 km/h (0 Bft) W-NW 0.00 h 0.5 UV-I 48 W/m 0.8 C 0.9 C 2.7 km/h (1 Bft)
15.01.2007 11:00 1.7 C 99 % 1031.7 hPa 0.0 l/m 0.7 km/h (0 Bft) W-NW 0.00 h 0.6 UV-I 81 W/m 1.6 C 1.7 C 2.3 km/h (1 Bft)
15.01.2007 12:00 2.6 C 99 % 1030.8 hPa 0.0 l/m 0.5 km/h (0 Bft) W-NW 0.00 h 0.7 UV-I 93 W/m 2.5 C 2.6 C 1.9 km/h (1 Bft)
15.01.2007 13:00 3.5 C 95 % 1029.9 hPa 0.0 l/m 0.6 km/h (0 Bft) W-NW 0.00 h 0.6 UV-I 85 W/m 2.8 C 3.5 C 2.0 km/h (1 Bft)
15.01.2007 14:00 4.1 C 88 % 1029.2 hPa 0.0 l/m 0.3 km/h (0 Bft) W-NW 0.00 h 0.5 UV-I 66 W/m 2.2 C 4.1 C 1.1 km/h (1 Bft)
15.01.2007 15:00 4.5 C 85 % 1028.8 hPa 0.0 l/m 0.7 km/h (0 Bft) N 0.00 h 0.0 UV-I 45 W/m 2.3 C 4.5 C 1.9 km/h (1 Bft)
15.01.2007 16:00 4.4 C 86 % 1028.6 hPa 0.0 l/m 1.1 km/h (1 Bft) NW 0.00 h 0.0 UV-I 17 W/m 2.3 C 4.4 C 2.8 km/h (1 Bft)
15.01.2007 17:00 4.0 C 88 % 1028.6 hPa 0.0 l/m 0.3 km/h (0 Bft) N 0.00 h 0.0 UV-I 0 W/m 2.1 C 4.0 C 0.7 km/h (0 Bft)
15.01.2007 18:00 3.8 C 90 % 1028.5 hPa 0.0 l/m 0.0 km/h (0 Bft) N 0.00 h 0.0 UV-I 0 W/m 2.2 C 3.8 C 0.0 km/h (0 Bft)
15.01.2007 19:00 3.5 C 90 % 1028.5 hPa 0.0 l/m 0.0 km/h (0 Bft) N 0.00 h 0.0 UV-I 0 W/m 2.1 C 3.5 C 0.2 km/h (0 Bft)
15.01.2007 20:00 3.2 C 92 % 1028.3 hPa 0.0 l/m 0.7 km/h (0 Bft) O 0.00 h 0.0 UV-I 0 W/m 2.1 C 3.2 C 1.6 km/h (1 Bft)
15.01.2007 21:00 3.1 C 93 % 1028.1 hPa 0.0 l/m 0.1 km/h (0 Bft) O 0.00 h 0.0 UV-I 0 W/m 2.1 C 3.1 C 0.5 km/h (0 Bft)
15.01.2007 22:00 3.3 C 93 % 1028.0 hPa 0.0 l/m 0.0 km/h (0 Bft) N 0.00 h 0.0 UV-I 0 W/m 2.3 C 3.3 C 0.2 km/h (0 Bft)
15.01.2007 23:00 3.2 C 93 % 1027.9 hPa 0.0 l/m 0.0 km/h (0 Bft) O 0.00 h 0.0 UV-I 0 W/m 2.2 C 3.2 C 0.2 km/h (0 Bft)
16.01.2007 00:00 2.5 C 93 % 1027.9 hPa 0.0 l/m 0.0 km/h (0 Bft) O 0.00 h 0.0 UV-I 0 W/m 1.6 C 2.5 C 0.3 km/h (0 Bft)
16.01.2007 01:00 2.1 C 96 % 1027.4 hPa 0.0 l/m 1.2 km/h (1 Bft) O-NO 0.00 h 0.0 UV-I 0 W/m 1.5 C 2.1 C 2.3 km/h (1 Bft)
16.01.2007 02:00 2.1 C 96 % 1027.3 hPa 0.0 l/m 0.4 km/h (0 Bft) O 0.00 h 0.0 UV-I 0 W/m 1.6 C 2.1 C 1.7 km/h (1 Bft)
16.01.2007 03:00 2.3 C 97 % 1027.0 hPa 0.0 l/m 0.4 km/h (0 Bft) O 0.00 h 0.0 UV-I 0 W/m 1.9 C 2.3 C 1.4 km/h (1 Bft)
16.01.2007 04:00 2.2 C 96 % 1026.7 hPa 0.0 l/m 0.0 km/h (0 Bft) N 0.00 h 0.0 UV-I 0 W/m 1.7 C 2.2 C 0.5 km/h (0 Bft)
16.01.2007 05:00 2.3 C 97 % 1026.7 hPa 0.0 l/m 0.1 km/h (0 Bft) O 0.00 h 0.0 UV-I 0 W/m 1.8 C 2.3 C 0.4 km/h (0 Bft)
16.01.2007 06:00 2.5 C 97 % 1026.6 hPa 0.0 l/m 0.0 km/h (0 Bft) O 0.00 h 0.0 UV-I 0 W/m 2.1 C 2.5 C 0.3 km/h (0 Bft)
16.01.2007 07:00 2.2 C 97 % 1027.1 hPa 0.0 l/m 0.7 km/h (0 Bft) O 0.00 h 0.0 UV-I 0 W/m 1.8 C 2.2 C 1.4 km/h (1 Bft)
16.01.2007 08:00 2.4 C 98 % 1027.3 hPa 0.0 l/m 0.0 km/h (0 Bft) O 0.00 h 0.0 UV-I 16 W/m 2.2 C 2.4 C 0.3 km/h (0 Bft)
16.01.2007 09:00 3.1 C 98 % 1027.1 hPa 0.0 l/m 0.1 km/h (0 Bft) O 0.00 h 0.0 UV-I 49 W/m 2.8 C 3.1 C 0.2 km/h (0 Bft)
16.01.2007 10:00 4.5 C 93 % 1027.1 hPa 0.0 l/m 0.1 km/h (0 Bft) O 0.00 h 0.6 UV-I 110 W/m 3.5 C 4.5 C 0.8 km/h (0 Bft)
16.01.2007 11:00 5.5 C 88 % 1027.1 hPa 0.0 l/m 0.1 km/h (0 Bft) O 0.58 h 0.8 UV-I 180 W/m 3.7 C 5.5 C 0.4 km/h (0 Bft)
16.01.2007 12:00 6.4 C 85 % 1026.4 hPa 0.0 l/m 0.8 km/h (0 Bft) O 0.62 h 1.0 UV-I 203 W/m 4.2 C 6.4 C 2.3 km/h (1 Bft)
16.01.2007 13:00 7.9 C 81 % 1025.5 hPa 0.0 l/m 1.3 km/h (1 Bft) N 1.00 h 1.0 UV-I 241 W/m 4.8 C 7.9 C 2.9 km/h (1 Bft)
16.01.2007 14:00 8.5 C 79 % 1024.9 hPa 0.0 l/m 1.4 km/h (1 Bft) W-NW 0.92 h 0.7 UV-I 186 W/m 5.1 C 8.5 C 3.0 km/h (1 Bft)
16.01.2007 15:00 8.8 C 79 % 1024.6 hPa 0.0 l/m 1.0 km/h (0 Bft) W-NW 0.47 h 0.5 UV-I 99 W/m 5.4 C 8.8 C 2.4 km/h (1 Bft)
16.01.2007 16:00 7.9 C 83 % 1024.4 hPa 0.0 l/m 0.1 km/h (0 Bft) W-NW 0.03 h 0.0 UV-I 29 W/m 5.3 C 7.9 C 0.4 km/h (0 Bft)
16.01.2007 17:00 6.7 C 88 % 1024.4 hPa 0.0 l/m 0.2 km/h (0 Bft) NO 0.00 h 0.0 UV-I 0 W/m 4.9 C 6.7 C 0.6 km/h (0 Bft)
16.01.2007 18:00 6.1 C 90 % 1024.9 hPa 0.0 l/m 0.2 km/h (0 Bft) O-NO 0.00 h 0.0 UV-I 0 W/m 4.5 C 6.1 C 0.3 km/h (0 Bft)
16.01.2007 19:00 5.9 C 91 % 1025.1 hPa 0.0 l/m 0.1 km/h (0 Bft) O-NO 0.00 h 0.0 UV-I 0 W/m 4.5 C 5.9 C 0.5 km/h (0 Bft)
16.01.2007 20:00 5.8 C 92 % 1025.0 hPa 0.0 l/m 0.1 km/h (0 Bft) O-NO 0.00 h 0.0 UV-I 0 W/m 4.5 C 5.8 C 0.4 km/h (0 Bft)
16.01.2007 21:00 6.0 C 90 % 1024.8 hPa 0.0 l/m 0.2 km/h (0 Bft) O-NO 0.00 h 0.0 UV-I 0 W/m 4.5 C 6.0 C 0.8 km/h (0 Bft)
16.01.2007 22:00 6.3 C 88 % 1024.7 hPa 0.0 l/m 0.5 km/h (0 Bft) O 0.00 h 0.0 UV-I 0 W/m 4.5 C 6.3 C 1.7 km/h (1 Bft)
16.01.2007 23:00 6.3 C 90 % 1024.7 hPa 0.0 l/m 0.3 km/h (0 Bft) O-NO 0.00 h 0.0 UV-I 0 W/m 4.8 C 6.3 C 1.0 km/h (0 Bft)
17.01.2007 00:00 6.0 C 92 % 1024.4 hPa 0.2 l/m 0.0 km/h (0 Bft) N 0.00 h 0.0 UV-I 0 W/m 4.8 C 6.0 C 0.2 km/h (0 Bft)
17.01.2007 01:00 5.7 C 93 % 1024.1 hPa 0.0 l/m 0.3 km/h (0 Bft) NO 0.00 h 0.0 UV-I 0 W/m 4.7 C 5.7 C 0.9 km/h (0 Bft)
17.01.2007 02:00 5.6 C 94 % 1024.0 hPa 0.0 l/m 0.3 km/h (0 Bft) NO 0.00 h 0.0 UV-I 0 W/m 4.7 C 5.6 C 1.0 km/h (0 Bft)
17.01.2007 03:00 5.4 C 95 % 1024.0 hPa 0.0 l/m 0.5 km/h (0 Bft) NO 0.00 h 0.0 UV-I 0 W/m 4.7 C 5.4 C 1.2 km/h (1 Bft)
17.01.2007 04:00 5.4 C 96 % 1024.0 hPa 0.0 l/m 0.5 km/h (0 Bft) NO 0.00 h 0.0 UV-I 0 W/m 4.8 C 5.4 C 1.2 km/h (1 Bft)
17.01.2007 05:00 5.5 C 96 % 1024.0 hPa 0.0 l/m 0.3 km/h (0 Bft) N 0.00 h 0.0 UV-I 0 W/m 4.9 C 5.5 C 1.1 km/h (0 Bft)
17.01.2007 06:00 5.6 C 97 % 1024.2 hPa 0.0 l/m 1.0 km/h (0 Bft) NO 0.00 h 0.0 UV-I 0 W/m 5.2 C 5.6 C 2.1 km/h (1 Bft)
17.01.2007 07:00 5.7 C 96 % 1024.4 hPa 0.0 l/m 0.7 km/h (0 Bft) O-SO 0.00 h 0.0 UV-I 0 W/m 5.2 C 5.7 C 1.6 km/h (1 Bft)
17.01.2007 08:00 6.1 C 96 % 1024.5 hPa 0.0 l/m 1.4 km/h (1 Bft) SO 0.00 h 0.0 UV-I 12 W/m 5.5 C 5.9 C 2.3 km/h (1 Bft)
17.01.2007 09:00 6.4 C 96 % 1024.7 hPa 0.0 l/m 0.1 km/h (0 Bft) SO 0.00 h 0.5 UV-I 59 W/m 5.8 C 6.4 C 0.6 km/h (0 Bft)
17.01.2007 10:00 8.0 C 89 % 1024.7 hPa 0.2 l/m 2.4 km/h (1 Bft) S-SO 0.00 h 0.5 UV-I 68 W/m 6.4 C 7.9 C 5.4 km/h (1 Bft)
17.01.2007 11:00 8.8 C 87 % 1024.3 hPa 0.0 l/m 1.8 km/h (1 Bft) W-SW 0.13 h 0.8 UV-I 119 W/m 6.7 C 8.7 C 4.8 km/h (1 Bft)
17.01.2007 12:00 9.6 C 85 % 1023.6 hPa 0.0 l/m 0.8 km/h (0 Bft) SO 0.00 h 0.8 UV-I 109 W/m 7.2 C 9.6 C 2.2 km/h (1 Bft)
17.01.2007 13:00 9.3 C 89 % 1023.1 hPa 0.0 l/m 1.2 km/h (1 Bft) N-NW 0.13 h 0.8 UV-I 139 W/m 7.6 C 9.3 C 2.4 km/h (1 Bft)
17.01.2007 14:00 10.3 C 85 % 1022.4 hPa 0.0 l/m 2.3 km/h (1 Bft) N-NW 0.30 h 0.8 UV-I 142 W/m 7.8 C 10.3 C 4.3 km/h (1 Bft)
17.01.2007 15:00 10.3 C 85 % 1022.2 hPa 0.0 l/m 2.8 km/h (1 Bft) N-NW 0.17 h 0.6 UV-I 76 W/m 7.9 C 10.3 C 5.1 km/h (1 Bft)
17.01.2007 16:00 10.0 C 86 % 1022.2 hPa 0.0 l/m 0.6 km/h (0 Bft) N-NW 0.20 h 0.0 UV-I 31 W/m 7.7 C 10.0 C 1.5 km/h (1 Bft)
17.01.2007 17:00 9.4 C 85 % 1022.2 hPa 0.0 l/m 1.2 km/h (1 Bft) O-SO 0.00 h 0.0 UV-I 5 W/m 7.0 C 9.4 C 2.2 km/h (1 Bft)
17.01.2007 18:00 9.2 C 81 % 1022.5 hPa 0.0 l/m 1.5 km/h (1 Bft) S-SW 0.00 h 0.0 UV-I 0 W/m 6.1 C 9.2 C 3.4 km/h (1 Bft)
17.01.2007 19:00 9.4 C 76 % 1022.6 hPa 0.0 l/m 4.7 km/h (1 Bft) S-SW 0.00 h 0.0 UV-I 0 W/m 5.5 C 9.1 C 10.3 km/h (2 Bft)
17.01.2007 20:00 9.8 C 75 % 1022.6 hPa 0.0 l/m 4.6 km/h (1 Bft) S 0.00 h 0.0 UV-I 0 W/m 5.6 C 9.6 C 9.3 km/h (2 Bft)
17.01.2007 21:00 10.0 C 72 % 1021.9 hPa 0.0 l/m 4.8 km/h (1 Bft) SW 0.00 h 0.0 UV-I 0 W/m 5.2 C 9.9 C 9.1 km/h (2 Bft)
17.01.2007 22:00 10.9 C 67 % 1021.1 hPa 0.0 l/m 5.5 km/h (1 Bft) SW 0.00 h 0.0 UV-I 0 W/m 5.1 C 10.9 C 10.1 km/h (2 Bft)
17.01.2007 23:00 11.0 C 67 % 1020.5 hPa 0.0 l/m 4.6 km/h (1 Bft) S-SW 0.00 h 0.0 UV-I 0 W/m 5.1 C 11.0 C 9.4 km/h (2 Bft)
18.01.2007 00:00 10.9 C 66 % 1020.0 hPa 0.0 l/m 4.7 km/h (1 Bft) SW 0.00 h 0.0 UV-I 0 W/m 4.9 C 10.9 C 9.2 km/h (2 Bft)
18.01.2007 01:00 11.8 C 60 % 1018.9 hPa 0.0 l/m 7.4 km/h (2 Bft) SW 0.00 h 0.0 UV-I 0 W/m 4.3 C 11.8 C 13.9 km/h (3 Bft)
18.01.2007 02:00 12.0 C 57 % 1018.2 hPa 0.0 l/m 9.3 km/h (2 Bft) W-SW 0.00 h 0.0 UV-I 0 W/m 3.8 C 12.0 C 16.0 km/h (3 Bft)
18.01.2007 03:00 13.2 C 53 % 1017.4 hPa 0.0 l/m 19.5 km/h (3 Bft) W-SW 0.00 h 0.0 UV-I 0 W/m 3.8 C 13.2 C 31.2 km/h (5 Bft)
18.01.2007 04:00 12.6 C 58 % 1016.7 hPa 0.0 l/m 15.8 km/h (3 Bft) W-SW 0.00 h 0.0 UV-I 0 W/m 4.6 C 12.6 C 26.8 km/h (4 Bft)
18.01.2007 05:00 11.5 C 69 % 1016.9 hPa 0.4 l/m 16.1 km/h (3 Bft) W-SW 0.00 h 0.0 UV-I 0 W/m 6.1 C 11.5 C 26.1 km/h (4 Bft)
18.01.2007 06:00 11.7 C 67 % 1016.4 hPa 0.0 l/m 15.9 km/h (3 Bft) W-SW 0.00 h 0.0 UV-I 0 W/m 5.7 C 11.7 C 25.9 km/h (4 Bft)
18.01.2007 07:00 12.1 C 65 % 1016.4 hPa 0.2 l/m 16.9 km/h (3 Bft) W-SW 0.00 h 0.0 UV-I 0 W/m 5.8 C 12.1 C 27.6 km/h (4 Bft)
18.01.2007 08:00 11.8 C 68 % 1016.2 hPa 0.0 l/m 14.0 km/h (3 Bft) W-SW 0.00 h 0.0 UV-I 9 W/m 6.1 C 11.8 C 24.0 km/h (4 Bft)
18.01.2007 09:00 11.8 C 70 % 1015.7 hPa 0.0 l/m 18.1 km/h (3 Bft) SW 0.00 h 0.0 UV-I 26 W/m 6.5 C 11.8 C 31.9 km/h (5 Bft)
18.01.2007 10:00 12.2 C 69 % 1015.1 hPa 0.0 l/m 17.6 km/h (3 Bft) W-SW 0.00 h 0.5 UV-I 48 W/m 6.8 C 12.2 C 28.5 km/h (4 Bft)
18.01.2007 11:00 11.7 C 76 % 1015.0 hPa 0.6 l/m 19.6 km/h (3 Bft) W-SW 0.00 h 0.0 UV-I 40 W/m 7.5 C 11.7 C 32.8 km/h (5 Bft)
18.01.2007 12:00 11.4 C 77 % 1014.9 hPa 0.2 l/m 21.0 km/h (4 Bft) W-SW 0.00 h 0.0 UV-I 31 W/m 7.5 C 11.4 C 32.8 km/h (5 Bft)
18.01.2007 13:00 12.6 C 69 % 1013.6 hPa 0.0 l/m 19.5 km/h (3 Bft) W-SW 0.00 h 0.0 UV-I 20 W/m 6.9 C 12.6 C 32.3 km/h (5 Bft)
18.01.2007 14:00 12.7 C 68 % 1012.4 hPa 0.0 l/m 21.2 km/h (4 Bft) W-SW 0.00 h 0.0 UV-I 28 W/m 7.0 C 12.7 C 35.6 km/h (5 Bft)
18.01.2007 15:00 13.5 C 64 % 1011.8 hPa 0.2 l/m 22.9 km/h (4 Bft) W-SW 0.00 h 0.0 UV-I 18 W/m 6.7 C 13.5 C 37.2 km/h (5 Bft)
18.01.2007 16:00 12.7 C 73 % 1011.6 hPa 0.6 l/m 23.0 km/h (4 Bft) W-SW 0.00 h 0.0 UV-I 8 W/m 8.0 C 12.7 C 37.7 km/h (5 Bft)
18.01.2007 17:00 11.7 C 79 % 1011.8 hPa 0.2 l/m 22.9 km/h (4 Bft) SW 0.00 h 0.0 UV-I 0 W/m 8.2 C 11.7 C 37.3 km/h (5 Bft)
18.01.2007 18:00 11.6 C 82 % 1011.6 hPa 0.6 l/m 22.6 km/h (4 Bft) W-SW 0.00 h 0.0 UV-I 0 W/m 8.5 C 11.6 C 37.0 km/h (5 Bft)
18.01.2007 19:00 11.0 C 88 % 1012.1 hPa 1.4 l/m 17.6 km/h (3 Bft) W-SW 0.00 h 0.0 UV-I 0 W/m 9.2 C 11.0 C 28.6 km/h (4 Bft)
18.01.2007 20:00 11.6 C 84 % 1012.0 hPa 0.0 l/m 21.0 km/h (4 Bft) W-SW 0.00 h 0.0 UV-I 0 W/m 8.9 C 11.6 C 33.9 km/h (5 Bft)
18.01.2007 21:00 12.7 C 77 % 1011.5 hPa 0.0 l/m 21.3 km/h (4 Bft) W-SW 0.00 h 0.0 UV-I 0 W/m 8.8 C 12.7 C 34.9 km/h (5 Bft)
18.01.2007 22:00 13.0 C 77 % 1011.9 hPa 0.2 l/m 21.5 km/h (4 Bft) W-SW 0.00 h 0.0 UV-I 0 W/m 9.0 C 13.0 C 32.3 km/h (5 Bft)
18.01.2007 23:00 13.2 C 76 % 1012.8 hPa 0.2 l/m 17.3 km/h (3 Bft) W-SW 0.00 h 0.0 UV-I 0 W/m 9.0 C 13.2 C 27.2 km/h (4 Bft)
19.01.2007 00:00 13.2 C 79 % 1013.7 hPa 0.4 l/m 21.7 km/h (4 Bft) W-SW 0.00 h 0.0 UV-I 0 W/m 9.6 C 13.2 C 32.8 km/h (5 Bft)
19.01.2007 01:00 12.4 C 86 % 1014.0 hPa 1.4 l/m 12.3 km/h (3 Bft) W-SW 0.00 h 0.0 UV-I 0 W/m 10.0 C 12.4 C 21.0 km/h (4 Bft)
19.01.2007 02:00 11.5 C 92 % 1014.0 hPa 0.2 l/m 11.1 km/h (2 Bft) W-SW 0.00 h 0.0 UV-I 0 W/m 10.3 C 11.5 C 18.5 km/h (3 Bft)
19.01.2007 03:00 12.6 C 83 % 1013.9 hPa 0.0 l/m 15.1 km/h (3 Bft) W-SW 0.00 h 0.0 UV-I 0 W/m 9.8 C 12.6 C 23.9 km/h (4 Bft)
19.01.2007 04:00 14.5 C 71 % 1013.7 hPa 0.0 l/m 23.1 km/h (4 Bft) W 0.00 h 0.0 UV-I 0 W/m 9.2 C 14.5 C 34.7 km/h (5 Bft)
19.01.2007 05:00 14.9 C 70 % 1014.0 hPa 0.0 l/m 28.2 km/h (4 Bft) W 0.00 h 0.0 UV-I 0 W/m 9.4 C 14.9 C 42.0 km/h (6 Bft)
19.01.2007 06:00 14.9 C 68 % 1014.4 hPa 0.0 l/m 30.4 km/h (5 Bft) W 0.00 h 0.0 UV-I 0 W/m 9.0 C 14.9 C 44.5 km/h (6 Bft)
19.01.2007 07:00 14.8 C 67 % 1015.3 hPa 0.2 l/m 27.2 km/h (4 Bft) W 0.00 h 0.0 UV-I 0 W/m 8.7 C 14.8 C 40.5 km/h (6 Bft)
19.01.2007 08:00 14.2 C 70 % 1016.6 hPa 0.0 l/m 24.7 km/h (4 Bft) W 0.00 h 0.0 UV-I 7 W/m 8.8 C 14.2 C 37.5 km/h (5 Bft)
19.01.2007 09:00 14.6 C 67 % 1017.7 hPa 0.0 l/m 30.8 km/h (5 Bft) W 0.00 h 0.0 UV-I 38 W/m 8.6 C 14.6 C 46.0 km/h (6 Bft)
19.01.2007 10:00 14.8 C 66 % 1018.8 hPa 0.0 l/m 27.6 km/h (4 Bft) W 0.00 h 0.7 UV-I 72 W/m 8.6 C 14.8 C 40.5 km/h (6 Bft)
19.01.2007 11:00 15.2 C 65 % 1019.7 hPa 0.0 l/m 29.0 km/h (5 Bft) W 0.10 h 0.9 UV-I 126 W/m 8.5 C 15.2 C 43.7 km/h (6 Bft)
19.01.2007 12:00 14.4 C 70 % 1020.6 hPa 0.0 l/m 26.7 km/h (4 Bft) W 0.00 h 1.0 UV-I 113 W/m 9.0 C 14.4 C 39.1 km/h (6 Bft)
19.01.2007 13:00 13.9 C 73 % 1021.7 hPa 0.0 l/m 24.0 km/h (4 Bft) W 0.00 h 1.0 UV-I 107 W/m 9.2 C 13.9 C 36.9 km/h (5 Bft)
19.01.2007 14:00 14.2 C 70 % 1021.8 hPa 0.0 l/m 25.2 km/h (4 Bft) W 0.02 h 0.8 UV-I 88 W/m 8.9 C 14.2 C 38.1 km/h (5 Bft)
19.01.2007 15:00 14.2 C 70 % 1023.4 hPa 0.0 l/m 15.8 km/h (3 Bft) W 0.00 h 0.5 UV-I 29 W/m 8.8 C 14.2 C 24.5 km/h (4 Bft)
19.01.2007 16:00 14.0 C 70 % 1024.3 hPa 0.0 l/m 14.8 km/h (3 Bft) W 0.00 h 0.0 UV-I 8 W/m 8.7 C 14.0 C 22.9 km/h (4 Bft)
19.01.2007 17:00 13.8 C 70 % 1025.0 hPa 0.0 l/m 18.6 km/h (3 Bft) W-SW 0.00 h 0.0 UV-I 0 W/m 8.5 C 13.8 C 29.3 km/h (5 Bft)
19.01.2007 18:00 13.7 C 70 % 1025.8 hPa 0.0 l/m 15.4 km/h (3 Bft) W 0.00 h 0.0 UV-I 0 W/m 8.3 C 13.7 C 23.3 km/h (4 Bft)
19.01.2007 19:00 13.7 C 69 % 1026.6 hPa 0.0 l/m 15.3 km/h (3 Bft) W 0.00 h 0.0 UV-I 0 W/m 8.2 C 13.7 C 23.8 km/h (4 Bft)
19.01.2007 20:00 13.3 C 75 % 1026.8 hPa 0.0 l/m 3.8 km/h (1 Bft) S 0.00 h 0.0 UV-I 0 W/m 8.9 C 13.3 C 7.7 km/h (2 Bft)
19.01.2007 21:00 12.6 C 79 % 1027.2 hPa 0.0 l/m 1.3 km/h (1 Bft) S-SW 0.00 h 0.0 UV-I 0 W/m 9.0 C 12.6 C 3.2 km/h (1 Bft)
19.01.2007 22:00 12.5 C 76 % 1026.9 hPa 0.0 l/m 3.6 km/h (1 Bft) S 0.00 h 0.0 UV-I 0 W/m 8.4 C 12.5 C 6.2 km/h (2 Bft)
19.01.2007 23:00 12.2 C 76 % 1026.6 hPa 0.0 l/m 6.5 km/h (2 Bft) W 0.00 h 0.0 UV-I 0 W/m 8.1 C 12.2 C 10.3 km/h (2 Bft)
20.01.2007 00:00 11.4 C 79 % 1026.3 hPa 0.0 l/m 1.4 km/h (1 Bft) S 0.00 h 0.0 UV-I 0 W/m 7.8 C 11.4 C 3.9 km/h (1 Bft)
20.01.2007 01:00 10.6 C 83 % 1026.2 hPa 0.0 l/m 2.3 km/h (1 Bft) S 0.00 h 0.0 UV-I 0 W/m 7.7 C 10.6 C 4.7 km/h (1 Bft)
20.01.2007 02:00 10.8 C 81 % 1025.7 hPa 0.0 l/m 2.3 km/h (1 Bft) S 0.00 h 0.0 UV-I 0 W/m 7.7 C 10.8 C 4.8 km/h (1 Bft)
20.01.2007 03:00 11.3 C 80 % 1025.1 hPa 0.0 l/m 4.3 km/h (1 Bft) W-SW 0.00 h 0.0 UV-I 0 W/m 7.9 C 11.3 C 7.4 km/h (2 Bft)
20.01.2007 04:00 10.8 C 82 % 1024.6 hPa 0.0 l/m 3.8 km/h (1 Bft) S-SW 0.00 h 0.0 UV-I 0 W/m 7.8 C 10.8 C 7.5 km/h (2 Bft)
20.01.2007 05:00 10.1 C 85 % 1024.4 hPa 0.0 l/m 4.9 km/h (1 Bft) S 0.00 h 0.0 UV-I 0 W/m 7.6 C 9.9 C 9.5 km/h (2 Bft)
20.01.2007 06:00 9.9 C 85 % 1024.0 hPa 0.0 l/m 4.9 km/h (1 Bft) S-SO 0.00 h 0.0 UV-I 0 W/m 7.5 C 9.6 C 9.2 km/h (2 Bft)
20.01.2007 07:00 9.6 C 86 % 1023.5 hPa 0.0 l/m 5.5 km/h (1 Bft) S 0.00 h 0.0 UV-I 0 W/m 7.4 C 9.1 C 10.5 km/h (2 Bft)
20.01.2007 08:00 9.2 C 87 % 1022.8 hPa 0.0 l/m 4.2 km/h (1 Bft) S-SO 0.00 h 0.0 UV-I 17 W/m 7.2 C 9.0 C 8.3 km/h (2 Bft)
20.01.2007 09:00 10.0 C 84 % 1022.8 hPa 0.0 l/m 3.9 km/h (1 Bft) S 0.42 h 0.5 UV-I 102 W/m 7.4 C 9.8 C 7.2 km/h (2 Bft)
20.01.2007 10:00 12.3 C 73 % 1022.4 hPa 0.0 l/m 15.7 km/h (3 Bft) W 0.00 h 0.7 UV-I 101 W/m 7.5 C 12.3 C 24.3 km/h (4 Bft)
20.01.2007 11:00 12.6 C 72 % 1022.3 hPa 0.0 l/m 13.8 km/h (3 Bft) W-SW 0.10 h 0.8 UV-I 86 W/m 7.8 C 12.6 C 22.4 km/h (4 Bft)
20.01.2007 12:00 12.8 C 72 % 1022.1 hPa 0.0 l/m 14.4 km/h (3 Bft) W 0.00 h 0.7 UV-I 77 W/m 7.9 C 12.8 C 22.5 km/h (4 Bft)
20.01.2007 13:00 13.0 C 71 % 1021.9 hPa 0.0 l/m 13.3 km/h (3 Bft) W 0.00 h 0.6 UV-I 60 W/m 7.9 C 13.0 C 20.9 km/h (4 Bft)
20.01.2007 14:00 12.9 C 71 % 1021.5 hPa 0.0 l/m 17.9 km/h (3 Bft) W 0.00 h 0.6 UV-I 35 W/m 7.9 C 12.9 C 27.6 km/h (4 Bft)
20.01.2007 15:00 12.9 C 73 % 1021.3 hPa 0.0 l/m 15.2 km/h (3 Bft) W 0.38 h 0.6 UV-I 119 W/m 8.1 C 12.9 C 23.5 km/h (4 Bft)
20.01.2007 16:00 12.8 C 70 % 1021.0 hPa 0.0 l/m 11.2 km/h (2 Bft) W 0.00 h 0.0 UV-I 21 W/m 7.5 C 12.8 C 17.7 km/h (3 Bft)
20.01.2007 17:00 12.7 C 67 % 1021.0 hPa 0.0 l/m 12.1 km/h (2 Bft) W 0.00 h 0.0 UV-I 5 W/m 6.8 C 12.7 C 19.4 km/h (3 Bft)
20.01.2007 18:00 12.9 C 62 % 1020.9 hPa 0.0 l/m 12.8 km/h (3 Bft) W-SW 0.00 h 0.0 UV-I 0 W/m 5.7 C 12.9 C 21.1 km/h (4 Bft)
20.01.2007 19:00 12.8 C 61 % 1020.6 hPa 0.0 l/m 10.2 km/h (2 Bft) W-SW 0.00 h 0.0 UV-I 0 W/m 5.4 C 12.8 C 16.9 km/h (3 Bft)
20.01.2007 20:00 12.1 C 64 % 1020.3 hPa 0.0 l/m 5.0 km/h (1 Bft) S-SW 0.00 h 0.0 UV-I 0 W/m 5.4 C 12.1 C 10.1 km/h (2 Bft)
20.01.2007 21:00 11.3 C 67 % 1019.9 hPa 0.0 l/m 3.8 km/h (1 Bft) S-SW 0.00 h 0.0 UV-I 0 W/m 5.5 C 11.3 C 8.2 km/h (2 Bft)
20.01.2007 22:00 11.6 C 66 % 1019.2 hPa 0.0 l/m 5.6 km/h (1 Bft) SW 0.00 h 0.0 UV-I 0 W/m 5.4 C 11.6 C 11.2 km/h (2 Bft)
20.01.2007 23:00 11.9 C 65 % 1018.8 hPa 0.0 l/m 4.8 km/h (1 Bft) SW 0.00 h 0.0 UV-I 0 W/m 5.6 C 11.9 C 9.5 km/h (2 Bft)
21.01.2007 00:00 11.5 C 68 % 1018.4 hPa 0.0 l/m 3.5 km/h (1 Bft) S 0.00 h 0.0 UV-I 0 W/m 5.7 C 11.5 C 7.5 km/h (2 Bft)
21.01.2007 01:00 10.8 C 77 % 1018.2 hPa 1.0 l/m 3.0 km/h (1 Bft) W-SW 0.00 h 0.0 UV-I 0 W/m 7.0 C 10.8 C 5.2 km/h (1 Bft)
21.01.2007 02:00 9.6 C 88 % 1017.9 hPa 1.2 l/m 0.4 km/h (0 Bft) W-NW 0.00 h 0.0 UV-I 0 W/m 7.8 C 9.6 C 1.1 km/h (1 Bft)
21.01.2007 03:00 8.9 C 93 % 1017.4 hPa 0.4 l/m 1.5 km/h (1 Bft) S-SO 0.00 h 0.0 UV-I 0 W/m 7.8 C 8.9 C 3.5 km/h (1 Bft)
21.01.2007 04:00 9.2 C 91 % 1016.6 hPa 0.0 l/m 6.4 km/h (2 Bft) W-SW 0.00 h 0.0 UV-I 0 W/m 7.8 C 8.4 C 9.8 km/h (2 Bft)
21.01.2007 05:00 9.3 C 89 % 1016.0 hPa 0.6 l/m 3.5 km/h (1 Bft) SW 0.00 h 0.0 UV-I 0 W/m 7.6 C 9.2 C 6.8 km/h (2 Bft)
21.01.2007 06:00 8.3 C 90 % 1016.5 hPa 1.4 l/m 22.6 km/h (4 Bft) W 0.00 h 0.0 UV-I 0 W/m 6.8 C 5.0 C 33.3 km/h (5 Bft)
21.01.2007 07:00 7.2 C 87 % 1017.6 hPa 0.4 l/m 25.0 km/h (4 Bft) W 0.00 h 0.0 UV-I 0 W/m 5.2 C 3.4 C 36.9 km/h (5 Bft)
21.01.2007 08:00 6.7 C 82 % 1018.3 hPa 0.0 l/m 25.6 km/h (4 Bft) W 0.00 h 0.0 UV-I 9 W/m 3.9 C 2.7 C 37.1 km/h (5 Bft)
21.01.2007 09:00 7.0 C 79 % 1019.1 hPa 0.0 l/m 19.9 km/h (4 Bft) W 0.00 h 0.5 UV-I 52 W/m 3.5 C 3.6 C 29.7 km/h (5 Bft)
21.01.2007 10:00 7.4 C 73 % 1019.8 hPa 0.0 l/m 22.9 km/h (4 Bft) W 0.15 h 0.9 UV-I 103 W/m 2.8 C 3.8 C 34.6 km/h (5 Bft)
21.01.2007 11:00 8.0 C 65 % 1020.7 hPa 0.0 l/m 28.3 km/h (4 Bft) W 0.73 h 1.2 UV-I 274 W/m 1.7 C 4.1 C 41.9 km/h (6 Bft)
21.01.2007 12:00 7.9 C 64 % 1021.0 hPa 0.0 l/m 24.6 km/h (4 Bft) W 0.10 h 1.1 UV-I 150 W/m 1.6 C 4.3 C 36.6 km/h (5 Bft)
21.01.2007 13:00 8.4 C 63 % 1021.0 hPa 0.0 l/m 19.7 km/h (3 Bft) W-NW 0.78 h 1.2 UV-I 277 W/m 1.7 C 5.4 C 29.4 km/h (5 Bft)
21.01.2007 14:00 8.8 C 58 % 1020.8 hPa 0.0 l/m 15.6 km/h (3 Bft) W 1.00 h 1.0 UV-I 237 W/m 1.0 C 6.4 C 23.4 km/h (4 Bft)
21.01.2007 15:00 8.5 C 56 % 1020.8 hPa 0.0 l/m 12.3 km/h (3 Bft) W 0.23 h 0.6 UV-I 84 W/m 0.3 C 6.6 C 19.1 km/h (3 Bft)
21.01.2007 16:00 7.6 C 66 % 1020.7 hPa 0.0 l/m 5.3 km/h (1 Bft) W 0.47 h 0.0 UV-I 43 W/m 1.6 C 7.0 C 8.2 km/h (2 Bft)
21.01.2007 17:00 6.2 C 73 % 1020.5 hPa 0.0 l/m 4.1 km/h (1 Bft) W 0.00 h 0.0 UV-I 6 W/m 1.8 C 5.7 C 6.5 km/h (2 Bft)
21.01.2007 18:00 5.3 C 77 % 1020.5 hPa 0.0 l/m 0.9 km/h (0 Bft) S-SW 0.00 h 0.0 UV-I 0 W/m 1.5 C 5.3 C 2.5 km/h (1 Bft)
21.01.2007 19:00 4.8 C 80 % 1020.7 hPa 0.0 l/m 1.6 km/h (1 Bft) S 0.00 h 0.0 UV-I 0 W/m 1.6 C 4.6 C 3.2 km/h (1 Bft)
21.01.2007 20:00 4.5 C 80 % 1021.0 hPa 0.0 l/m 2.2 km/h (1 Bft) S-SO 0.00 h 0.0 UV-I 0 W/m 1.4 C 4.3 C 4.7 km/h (1 Bft)
21.01.2007 21:00 3.7 C 82 % 1021.1 hPa 0.0 l/m 0.4 km/h (0 Bft) S-SO 0.00 h 0.0 UV-I 0 W/m 1.0 C 3.7 C 1.3 km/h (1 Bft)
21.01.2007 22:00 3.4 C 82 % 1021.0 hPa 0.0 l/m 1.4 km/h (1 Bft) SO 0.00 h 0.0 UV-I 0 W/m 0.5 C 3.3 C 2.5 km/h (1 Bft)
21.01.2007 23:00 3.5 C 78 % 1021.0 hPa 0.0 l/m 2.7 km/h (1 Bft) S-SO 0.00 h 0.0 UV-I 0 W/m 0.0 C 3.3 C 4.7 km/h (1 Bft)
Min-Datum _ 15.01.07 18.01.07 18.01.07 - 15.01.07 - - - - 15.01.07 15.01.07 15.01.07
_ Min-Zeit 07:47 03:31 15:45 - 00:01 - - - - 07:47 10:13 00:03
Minimum _ -0.3 C 50 % 1011.2 hPa - 0.0 km/h (0 Bft) - - - - -0.6 C -0.8 C 0.0 km/h (0 Bft)
Max-Datum _ 19.01.07 15.01.07 15.01.07 18.01.07 19.01.07 - 16.01.07 21.01.07 21.01.07 19.01.07 19.01.07 18.01.07
_ Max-Zeit 05:18 11:43 00:00 19:07 12:29 - 11:19 11:44 13:05 02:21 05:18 16:03
Maximum _ 15.3 C 100 % 1033.5 hPa 1.4 l/m 49.6 km/h
W (6 Bft)
- 0.02 h 1.4 UV-I 436 W/m 10.5 C 15.3 C 72.1 km/h
W (8 Bft)
Durchschnitt _ 8.5 C 81 % 1022.3 hPa #12.4 l/m 8.3 km/h (2 Bft) W #9:02 h 0.7 UV-I 76 W/m 5.3 C 8.3 C 13.4 km/h (3 Bft)
© Kaiko 2007